createdAt,value
2023-04-29T00:00:14.112Z,5.22
2023-04-29T00:02:42.500Z,4.75
2023-04-29T00:05:11.128Z,6.05
2023-04-29T00:07:39.625Z,4.47
2023-04-29T00:10:10.131Z,4.00
2023-04-29T00:12:38.156Z,4.18
2023-04-29T00:15:07.004Z,3.75
2023-04-29T00:17:35.062Z,4.10
2023-04-29T00:20:03.268Z,3.90
2023-04-29T00:22:31.316Z,3.97
2023-04-29T00:24:59.357Z,3.65
2023-04-29T00:27:28.773Z,4.20
2023-04-29T00:29:57.225Z,4.05
2023-04-29T00:32:25.470Z,3.85
2023-04-29T00:34:53.748Z,3.92
2023-04-29T00:37:21.848Z,4.13
2023-04-29T00:39:50.105Z,3.80
2023-04-29T00:42:18.332Z,3.78
2023-04-29T00:44:47.755Z,3.67
2023-04-29T00:47:15.853Z,3.35
2023-04-29T00:49:44.647Z,3.57
2023-04-29T00:52:14.306Z,3.60
2023-04-29T00:54:42.689Z,3.47
2023-04-29T00:57:11.239Z,3.60
2023-04-29T00:59:39.685Z,3.75
2023-04-29T01:02:09.317Z,3.33
2023-04-29T01:04:37.632Z,3.70
2023-04-29T01:07:15.588Z,4.03
2023-04-29T01:10:04.145Z,9.18
2023-04-29T01:12:38.735Z,8.32
2023-04-29T01:15:12.436Z,12.82
2023-04-29T01:17:50.642Z,7.27
2023-04-29T01:20:20.313Z,3.42
2023-04-29T01:22:48.871Z,3.72
2023-04-29T01:25:18.394Z,4.17
2023-04-29T01:27:54.689Z,8.97
2023-04-29T01:30:32.562Z,3.97
2023-04-29T01:33:07.939Z,3.92
2023-04-29T01:35:46.857Z,5.00
2023-04-29T01:38:24.642Z,4.68
2023-04-29T01:41:01.408Z,4.15
2023-04-29T01:43:33.872Z,4.88
2023-04-29T01:46:04.298Z,4.10
2023-04-29T01:48:32.858Z,4.53
2023-04-29T01:51:01.433Z,4.60
2023-04-29T01:53:29.537Z,4.63
2023-04-29T01:55:58.945Z,4.38
2023-04-29T01:58:28.120Z,5.10
2023-04-29T02:00:56.402Z,4.70
2023-04-29T02:03:24.714Z,5.05
2023-04-29T02:05:53.009Z,4.40
2023-04-29T02:08:21.163Z,4.27
2023-04-29T02:10:55.835Z,3.88
2023-04-29T02:13:25.399Z,5.10
2023-04-29T02:15:53.512Z,4.47
2023-04-29T02:18:21.832Z,5.57
2023-04-29T02:20:51.761Z,4.53
2023-04-29T02:23:19.842Z,5.20
2023-04-29T02:25:47.985Z,4.95
2023-04-29T02:28:16.054Z,5.38
2023-04-29T02:30:47.042Z,4.50
2023-04-29T02:33:15.126Z,5.20
2023-04-29T02:35:43.308Z,5.50
2023-04-29T02:38:12.083Z,5.25
2023-04-29T02:40:43.235Z,10.43
2023-04-29T02:43:12.009Z,5.13
2023-04-29T02:45:40.754Z,5.10
2023-04-29T02:48:10.245Z,4.88
2023-04-29T02:50:38.349Z,5.05
2023-04-29T02:53:06.422Z,6.22
2023-04-29T02:55:34.436Z,5.53
2023-04-29T02:58:03.953Z,5.40
2023-04-29T03:00:32.114Z,5.05
2023-04-29T03:03:00.249Z,5.93
2023-04-29T03:05:29.953Z,5.53
2023-04-29T03:07:58.061Z,5.43
2023-04-29T03:10:26.177Z,6.00
2023-04-29T03:12:54.256Z,5.72
2023-04-29T03:15:22.397Z,4.82
2023-04-29T03:17:50.502Z,6.43
2023-04-29T03:20:18.546Z,6.35
2023-04-29T03:22:48.109Z,6.20
2023-04-29T03:25:16.216Z,6.27
2023-04-29T03:27:44.258Z,6.67
2023-04-29T03:30:12.921Z,6.55
2023-04-29T03:32:40.959Z,6.57
2023-04-29T03:35:14.159Z,6.95
2023-04-29T03:37:44.529Z,7.00
2023-04-29T03:40:15.274Z,6.60
2023-04-29T03:42:43.399Z,6.13
2023-04-29T03:45:13.133Z,7.33
2023-04-29T03:47:41.304Z,7.30
2023-04-29T03:50:09.976Z,9.33
2023-04-29T03:52:38.102Z,7.40
2023-04-29T03:55:06.987Z,7.67
2023-04-29T03:57:36.452Z,7.20
2023-04-29T04:00:04.878Z,8.38
2023-04-29T04:02:33.093Z,7.78
2023-04-29T04:05:01.294Z,7.78
2023-04-29T04:07:29.401Z,7.30
2023-04-29T04:09:57.403Z,8.45
2023-04-29T04:12:25.617Z,7.60
2023-04-29T04:14:55.541Z,9.30
2023-04-29T04:17:23.531Z,8.68
2023-04-29T04:19:51.749Z,8.35
2023-04-29T04:22:20.287Z,8.00
2023-04-29T04:24:48.288Z,9.00
2023-04-29T04:27:16.398Z,8.65
2023-04-29T04:29:44.556Z,9.13
2023-04-29T04:32:14.063Z,8.77
2023-04-29T04:34:42.103Z,9.18
2023-04-29T04:37:10.252Z,8.82
2023-04-29T04:39:38.297Z,8.85
2023-04-29T04:42:06.873Z,8.60
2023-04-29T04:44:34.966Z,9.35
2023-04-29T04:47:03.213Z,8.98
2023-04-29T04:49:32.654Z,8.55
2023-04-29T04:52:00.754Z,9.38
2023-04-29T04:54:28.880Z,8.90
2023-04-29T04:56:56.941Z,8.75
2023-04-29T04:59:25.433Z,8.75
2023-04-29T05:01:53.596Z,9.30
2023-04-29T05:04:21.903Z,9.40
2023-04-29T05:06:51.622Z,10.02
2023-04-29T05:09:19.736Z,9.93
2023-04-29T05:11:47.949Z,9.23
2023-04-29T05:14:16.454Z,9.10
2023-04-29T05:16:45.368Z,10.65
2023-04-29T05:19:13.770Z,9.30
2023-04-29T05:21:41.816Z,9.10
2023-04-29T05:24:11.395Z,9.00
2023-04-29T05:26:39.505Z,9.70
2023-04-29T05:29:07.571Z,9.80
2023-04-29T05:31:35.747Z,10.15
2023-04-29T05:34:05.886Z,9.10
2023-04-29T05:36:33.937Z,10.27
2023-04-29T05:39:02.026Z,9.65
2023-04-29T05:41:31.608Z,8.98
2023-04-29T05:43:59.842Z,10.38
2023-04-29T05:46:28.095Z,8.75
2023-04-29T05:48:57.892Z,9.10
2023-04-29T05:51:26.187Z,8.45
2023-04-29T05:53:54.327Z,9.55
2023-04-29T05:56:22.512Z,8.32
2023-04-29T05:58:52.253Z,7.80
2023-04-29T06:01:20.339Z,7.20
2023-04-29T06:03:48.536Z,7.78
2023-04-29T06:06:17.092Z,7.80
2023-04-29T06:08:45.270Z,6.53
2023-04-29T06:11:13.407Z,8.82
2023-04-29T06:13:41.557Z,9.10
2023-04-29T06:16:11.221Z,8.93
2023-04-29T06:18:39.329Z,8.32
2023-04-29T06:21:07.555Z,7.82
2023-04-29T06:23:35.762Z,8.00
2023-04-29T06:26:04.075Z,8.70
2023-04-29T06:28:32.256Z,8.60
2023-04-29T06:31:00.295Z,7.97
2023-04-29T06:33:30.508Z,8.05
2023-04-29T06:35:58.639Z,8.23
2023-04-29T06:38:26.661Z,8.50
2023-04-29T06:40:54.746Z,7.93
2023-04-29T06:43:22.824Z,6.85
2023-04-29T06:45:51.061Z,7.43
2023-04-29T06:48:19.212Z,8.13
2023-04-29T06:50:55.936Z,7.95
2023-04-29T06:53:24.819Z,7.57
2023-04-29T06:55:52.957Z,7.07
2023-04-29T06:58:21.484Z,7.63
2023-04-29T07:00:52.018Z,6.60
2023-04-29T07:03:20.248Z,7.35
2023-04-29T07:05:48.564Z,8.02
2023-04-29T07:08:18.133Z,7.15
2023-04-29T07:10:46.734Z,8.15
2023-04-29T07:13:14.815Z,7.80
2023-04-29T07:15:42.861Z,7.75
2023-04-29T07:18:11.109Z,8.02
2023-04-29T07:20:39.478Z,7.20
2023-04-29T07:23:07.560Z,6.28
2023-04-29T07:25:37.058Z,6.75
2023-04-29T07:28:05.150Z,7.50
2023-04-29T07:30:33.366Z,7.28
2023-04-29T07:33:01.674Z,6.72
2023-04-29T07:35:29.841Z,7.47
2023-04-29T07:37:58.100Z,7.47
2023-04-29T07:40:26.299Z,7.28
2023-04-29T07:42:55.856Z,6.45
2023-04-29T07:45:23.853Z,6.65
2023-04-29T07:47:52.054Z,6.68
2023-04-29T07:50:20.179Z,7.18
2023-04-29T07:52:48.246Z,6.13
2023-04-29T07:55:16.345Z,7.38
2023-04-29T07:57:44.338Z,6.78
2023-04-29T08:00:14.633Z,6.20
2023-04-29T08:02:42.978Z,5.90
2023-04-29T08:05:11.587Z,6.97
2023-04-29T08:07:39.960Z,6.70
2023-04-29T08:10:09.073Z,6.50
2023-04-29T08:12:37.068Z,6.88
2023-04-29T08:15:07.106Z,6.70
2023-04-29T08:17:37.849Z,5.85
2023-04-29T08:20:08.078Z,7.47
2023-04-29T08:22:36.587Z,5.85
2023-04-29T08:25:05.736Z,5.20
2023-04-29T08:27:33.868Z,5.65
2023-04-29T08:30:01.942Z,5.40
2023-04-29T08:32:30.102Z,4.63
2023-04-29T08:34:59.621Z,6.32
2023-04-29T08:37:27.775Z,6.72
2023-04-29T08:39:55.844Z,7.05
2023-04-29T08:42:34.697Z,6.32
2023-04-29T08:45:03.906Z,7.15
2023-04-29T08:47:33.059Z,7.15
2023-04-29T08:50:05.301Z,7.38
2023-04-29T08:52:33.576Z,6.78
2023-04-29T08:55:02.678Z,8.00
2023-04-29T08:57:39.586Z,7.75
2023-04-29T09:00:11.215Z,6.10
2023-04-29T09:02:44.780Z,7.63
2023-04-29T09:05:14.598Z,10.88
2023-04-29T09:07:43.519Z,9.57
2023-04-29T09:10:12.294Z,10.82
2023-04-29T09:12:40.482Z,10.05
2023-04-29T09:15:09.560Z,11.40
2023-04-29T09:17:45.258Z,9.00
2023-04-29T09:20:31.353Z,12.55
2023-04-29T09:23:01.458Z,12.67
2023-04-29T09:25:30.010Z,14.93
2023-04-29T09:27:58.294Z,11.60
2023-04-29T09:30:26.979Z,12.27
2023-04-29T09:33:09.403Z,14.60
2023-04-29T09:35:42.038Z,12.47
2023-04-29T09:38:12.212Z,15.55
2023-04-29T09:40:54.371Z,15.00
2023-04-29T09:43:26.459Z,12.90
2023-04-29T09:45:54.679Z,14.57
2023-04-29T09:48:23.125Z,16.08
2023-04-29T09:51:03.561Z,17.70
2023-04-29T09:53:32.405Z,16.48
2023-04-29T09:56:02.496Z,17.70
2023-04-29T09:58:34.157Z,17.20
2023-04-29T10:01:04.661Z,17.80
2023-04-29T10:03:34.948Z,15.30
2023-04-29T10:06:06.403Z,17.33
2023-04-29T10:08:38.112Z,18.80
2023-04-29T10:11:06.418Z,20.27
2023-04-29T10:13:38.590Z,18.27
2023-04-29T10:16:14.957Z,20.90
2023-04-29T10:18:46.145Z,21.70
2023-04-29T10:21:16.173Z,23.48
2023-04-29T10:23:45.818Z,22.57
2023-04-29T10:26:14.842Z,24.00
2023-04-29T10:28:46.139Z,27.88
2023-04-29T10:31:16.888Z,22.13
2023-04-29T10:33:46.238Z,25.50
2023-04-29T10:36:17.210Z,26.63
2023-04-29T10:38:52.452Z,23.75
2023-04-29T10:41:25.512Z,25.50
2023-04-29T10:43:54.135Z,29.15
2023-04-29T10:46:23.845Z,35.72
2023-04-29T10:48:57.516Z,42.97
2023-04-29T10:51:34.737Z,49.10
2023-04-29T10:54:05.220Z,31.85
2023-04-29T10:56:41.453Z,36.05
2023-04-29T10:59:14.500Z,39.60
2023-04-29T11:01:47.360Z,35.63
2023-04-29T11:04:16.273Z,38.97
2023-04-29T11:06:53.097Z,31.08
2023-04-29T11:09:25.638Z,35.10
2023-04-29T11:12:03.032Z,24.85
2023-04-29T11:14:37.675Z,36.03
2023-04-29T11:17:10.577Z,16.73
2023-04-29T11:19:43.024Z,40.05
2023-04-29T11:22:14.912Z,11.07
2023-04-29T11:24:57.723Z,9.95
2023-04-29T11:27:28.242Z,8.63
2023-04-29T11:29:58.825Z,10.18
2023-04-29T11:32:28.075Z,11.27
2023-04-29T11:34:56.778Z,9.45
2023-04-29T11:37:27.603Z,8.82
2023-04-29T11:40:02.289Z,8.93
2023-04-29T11:42:30.673Z,10.00
2023-04-29T11:45:00.437Z,9.35
2023-04-29T11:47:30.595Z,10.73
2023-04-29T11:50:08.031Z,10.40
2023-04-29T11:52:40.261Z,8.23
2023-04-29T11:55:10.586Z,7.93
2023-04-29T11:57:39.200Z,8.60
2023-04-29T12:00:10.642Z,8.82
2023-04-29T12:02:38.913Z,9.32
2023-04-29T12:05:08.726Z,8.40
2023-04-29T12:07:38.443Z,13.50
2023-04-29T12:10:10.519Z,8.95
2023-04-29T12:12:41.049Z,8.40
2023-04-29T12:15:10.934Z,9.77
2023-04-29T12:17:39.274Z,7.63
2023-04-29T12:20:09.176Z,8.32
2023-04-29T12:22:38.963Z,8.18
2023-04-29T12:25:09.865Z,7.15
2023-04-29T12:27:42.175Z,9.13
2023-04-29T12:30:12.359Z,8.27
2023-04-29T12:32:42.158Z,9.68
2023-04-29T12:35:17.908Z,8.35
2023-04-29T12:37:51.451Z,8.10
2023-04-29T12:40:21.048Z,7.28
2023-04-29T12:42:49.333Z,7.35
2023-04-29T12:45:32.126Z,8.18
2023-04-29T12:48:00.955Z,12.80
2023-04-29T12:50:32.822Z,10.00
2023-04-29T12:53:02.915Z,7.47
2023-04-29T12:55:31.093Z,6.63
2023-04-29T12:58:01.069Z,6.75
2023-04-29T13:00:29.384Z,7.38
2023-04-29T13:02:58.596Z,8.23
2023-04-29T13:05:27.265Z,8.75
2023-04-29T13:07:55.632Z,4.97
2023-04-29T13:10:25.570Z,6.68
2023-04-29T13:12:53.553Z,8.15
2023-04-29T13:15:21.640Z,9.23
2023-04-29T13:17:49.923Z,7.95
2023-04-29T13:20:18.204Z,9.05
2023-04-29T13:22:46.423Z,8.70
2023-04-29T13:25:16.404Z,13.68
2023-04-29T13:27:45.929Z,15.40
2023-04-29T13:30:14.739Z,8.80
2023-04-29T13:32:46.504Z,13.98
2023-04-29T13:35:21.741Z,11.20
2023-04-29T13:37:50.077Z,14.98
2023-04-29T13:40:21.150Z,19.85
2023-04-29T13:42:59.624Z,25.33
2023-04-29T13:45:32.862Z,25.05
2023-04-29T13:53:31.744Z,22.70
2023-04-29T13:56:46.397Z,23.05
2023-04-29T13:59:28.746Z,40.33
2023-04-29T14:04:01.252Z,102.38
2023-04-29T14:06:30.490Z,99.30
2023-04-29T14:08:58.519Z,83.95
2023-04-29T14:11:26.794Z,152.50
2023-04-29T14:13:56.315Z,115.43
2023-04-29T14:16:24.406Z,154.85
2023-04-29T14:18:52.497Z,101.10
2023-04-29T14:21:22.408Z,102.20
2023-04-29T14:23:50.571Z,100.00
2023-04-29T14:28:49.670Z,81.82
2023-04-29T14:31:19.103Z,133.20
2023-04-29T14:33:48.670Z,90.18
2023-04-29T14:36:16.647Z,87.32
2023-04-29T14:38:44.724Z,106.90
2023-04-29T14:41:12.763Z,41.97
2023-04-29T14:43:41.776Z,34.00
2023-04-29T14:46:10.292Z,45.78
2023-04-29T14:48:40.124Z,31.20
2023-04-29T14:51:08.423Z,33.15
2023-04-29T14:53:36.629Z,59.53
2023-04-29T14:56:04.809Z,49.83
2023-04-29T14:58:32.881Z,36.60
2023-04-29T15:01:01.237Z,24.48
2023-04-29T15:03:29.412Z,53.40
2023-04-29T15:05:59.160Z,45.95
2023-04-29T15:08:27.596Z,100.07
2023-04-29T15:10:55.634Z,99.15
2023-04-29T15:13:23.831Z,89.22
2023-04-29T15:15:52.013Z,61.10
2023-04-29T15:18:20.054Z,102.35
2023-04-29T15:20:48.071Z,116.50
2023-04-29T15:23:17.704Z,125.05
2023-04-29T15:25:46.304Z,134.50
2023-04-29T15:28:15.278Z,128.82
2023-04-29T15:30:43.456Z,148.30
2023-04-29T15:33:12.116Z,164.80
2023-04-29T15:35:40.559Z,166.43
2023-04-29T15:38:08.958Z,175.60
2023-04-29T15:40:38.356Z,171.43
2023-04-29T15:43:07.366Z,171.75
2023-04-29T15:45:35.408Z,155.57
2023-04-29T15:48:03.498Z,161.73
2023-04-29T15:50:31.539Z,144.45
2023-04-29T15:53:00.609Z,135.43
2023-04-29T15:55:28.610Z,127.57
2023-04-29T15:57:58.087Z,120.47
2023-04-29T16:00:26.292Z,115.50
2023-04-29T16:02:54.836Z,123.47
2023-04-29T16:05:23.061Z,126.00
2023-04-29T16:07:51.041Z,110.88
2023-04-29T16:10:19.058Z,136.48
2023-04-29T16:12:47.064Z,143.45
2023-04-29T16:15:16.620Z,154.50
2023-04-29T16:17:44.747Z,146.57
2023-04-29T16:20:13.140Z,136.50
2023-04-29T16:22:41.395Z,129.57
2023-04-29T16:25:11.098Z,138.02
2023-04-29T16:27:39.409Z,141.95
2023-04-29T16:30:09.005Z,160.32
2023-04-29T16:32:38.618Z,133.48
2023-04-29T16:35:07.450Z,132.35
2023-04-29T16:37:35.748Z,135.93
2023-04-29T16:40:04.091Z,117.18
2023-04-29T16:42:32.130Z,123.75
2023-04-29T16:45:02.369Z,129.55
2023-04-29T16:47:30.453Z,148.68
2023-04-29T16:50:00.205Z,125.80
2023-04-29T16:52:28.213Z,137.98
2023-04-29T16:54:57.167Z,139.98
2023-04-29T16:57:26.531Z,151.07
2023-04-29T16:59:54.829Z,130.65
2023-04-29T17:02:23.321Z,135.50
2023-04-29T17:04:52.742Z,141.23
2023-04-29T17:07:22.208Z,140.25
2023-04-29T17:09:50.297Z,147.43
2023-04-29T17:12:18.255Z,161.45
2023-04-29T17:14:48.340Z,177.02
2023-04-29T17:17:16.408Z,187.30
2023-04-29T17:19:44.449Z,171.38
2023-04-29T17:22:12.659Z,193.93
2023-04-29T17:24:44.757Z,189.93
2023-04-29T17:27:13.078Z,196.70
2023-04-29T17:29:41.188Z,188.52
2023-04-29T17:32:11.405Z,200.13
2023-04-29T17:34:39.569Z,190.55
2023-04-29T17:37:07.845Z,198.43
2023-04-29T17:39:36.080Z,190.38
2023-04-29T17:42:05.791Z,194.00
2023-04-29T17:44:33.886Z,176.70
2023-04-29T17:47:02.087Z,171.93
2023-04-29T17:49:30.111Z,173.27
2023-04-29T17:51:59.893Z,178.88
2023-04-29T17:54:29.153Z,176.85
2023-04-29T17:56:57.264Z,168.38
2023-04-29T17:59:26.596Z,70.68
2023-04-29T18:01:54.634Z,55.03
2023-04-29T18:04:22.623Z,5.00
2023-04-29T18:06:50.721Z,74.55
2023-04-29T18:09:18.849Z,73.07
2023-04-29T18:11:46.929Z,89.75
2023-04-29T18:14:14.887Z,136.00
2023-04-29T18:16:44.825Z,115.78
2023-04-29T18:19:12.873Z,99.63
2023-04-29T18:21:41.015Z,130.25
2023-04-29T18:24:09.017Z,109.28
2023-04-29T18:26:37.059Z,117.38
2023-04-29T18:29:05.136Z,112.53
2023-04-29T18:31:35.141Z,117.80
2023-04-29T18:34:04.650Z,107.10
2023-04-29T18:36:33.249Z,109.13
2023-04-29T18:39:01.388Z,124.43
2023-04-29T18:41:29.492Z,121.03
2023-04-29T18:43:57.520Z,131.70
2023-04-29T18:46:25.591Z,125.80
2023-04-29T18:48:53.729Z,133.70
2023-04-29T18:51:23.400Z,144.45
2023-04-29T18:53:51.366Z,142.38
2023-04-29T18:56:19.546Z,152.55
2023-04-29T18:58:47.690Z,138.48
2023-04-29T19:01:15.776Z,153.60
2023-04-29T19:03:43.863Z,148.77
2023-04-29T19:06:12.023Z,152.75
2023-04-29T19:08:44.059Z,157.55
2023-04-29T19:11:12.224Z,145.37
2023-04-29T19:13:41.038Z,158.93
2023-04-29T19:16:12.258Z,146.83
2023-04-29T19:18:40.396Z,159.00
2023-04-29T19:21:10.130Z,149.30
2023-04-29T19:23:38.217Z,152.67
2023-04-29T19:26:08.532Z,155.95
2023-04-29T19:28:37.129Z,149.60
2023-04-29T19:31:05.420Z,144.73
2023-04-29T19:33:33.767Z,144.07
2023-04-29T19:36:02.298Z,142.20
2023-04-29T19:38:30.384Z,82.97
2023-04-29T19:40:58.629Z,85.03
2023-04-29T19:43:28.150Z,90.30
2023-04-29T19:45:56.260Z,87.70
2023-04-29T19:48:24.707Z,85.23
2023-04-29T19:50:52.740Z,73.33
2023-04-29T19:53:20.746Z,79.57
2023-04-29T19:55:51.153Z,89.30
2023-04-29T19:58:19.682Z,79.53
2023-04-29T20:00:49.429Z,76.55
2023-04-29T20:03:19.133Z,72.93
2023-04-29T20:05:47.338Z,78.87
2023-04-29T20:08:15.441Z,77.63
2023-04-29T20:10:43.465Z,87.60
2023-04-29T20:13:11.450Z,87.18
2023-04-29T20:15:39.417Z,90.33
2023-04-29T20:18:08.808Z,87.60
2023-04-29T20:20:36.879Z,87.60
2023-04-29T20:23:05.405Z,96.60
2023-04-29T20:25:33.563Z,90.82
2023-04-29T20:28:01.628Z,91.47
2023-04-29T20:30:29.662Z,99.07
2023-04-29T20:32:57.735Z,96.73
2023-04-29T20:35:27.216Z,88.50
2023-04-29T20:37:55.386Z,96.93
2023-04-29T20:40:23.643Z,96.17
2023-04-29T20:42:51.699Z,98.77
2023-04-29T20:45:19.743Z,102.17
2023-04-29T20:47:48.018Z,112.27
2023-04-29T20:50:16.073Z,114.30
2023-04-29T20:52:49.148Z,103.40
2023-04-29T20:55:17.380Z,111.03
2023-04-29T20:57:45.394Z,115.53
2023-04-29T21:00:14.289Z,116.30
2023-04-29T21:02:42.263Z,127.07
2023-04-29T21:05:10.958Z,129.23
2023-04-29T21:07:39.452Z,123.30
2023-04-29T21:10:09.618Z,134.23
2023-04-29T21:12:37.731Z,131.10
2023-04-29T21:15:06.536Z,130.37
2023-04-29T21:17:34.606Z,131.60
2023-04-29T21:20:02.658Z,127.80
2023-04-29T21:22:30.687Z,133.43
2023-04-29T21:24:58.691Z,126.57
2023-04-29T21:27:28.055Z,130.63
2023-04-29T21:29:56.918Z,95.40
2023-04-29T21:32:24.925Z,127.83
2023-04-29T21:34:53.024Z,122.83
2023-04-29T21:37:21.028Z,110.60
2023-04-29T21:39:49.012Z,100.27
2023-04-29T21:42:21.215Z,108.20
2023-04-29T21:44:50.648Z,99.53
2023-04-29T21:47:18.692Z,99.50
2023-04-29T21:49:48.271Z,98.67
2023-04-29T21:52:16.450Z,100.80
2023-04-29T21:54:44.833Z,49.30
2023-04-29T21:57:13.219Z,35.53
2023-04-29T21:59:41.224Z,40.20
2023-04-29T22:02:21.979Z,44.15
2023-04-29T22:04:51.546Z,44.27
2023-04-29T22:07:20.091Z,41.73
2023-04-29T22:09:49.657Z,38.57
2023-04-29T22:12:18.521Z,31.23
2023-04-29T22:14:46.962Z,36.87
2023-04-29T22:17:16.443Z,35.20
2023-04-29T22:19:44.832Z,40.77
2023-04-29T22:22:13.083Z,43.40
2023-04-29T22:24:41.097Z,40.17
2023-04-29T22:27:09.269Z,39.00
2023-04-29T22:29:37.463Z,45.97
2023-04-29T22:32:06.245Z,43.50
2023-04-29T22:34:35.974Z,47.47
2023-04-29T22:37:03.976Z,43.20
2023-04-29T22:39:31.976Z,49.83
2023-04-29T22:42:00.035Z,47.20
2023-04-29T22:44:28.116Z,57.57
2023-04-29T22:46:56.213Z,37.40
2023-04-29T22:49:25.068Z,39.90
2023-04-29T22:51:54.506Z,45.47
2023-04-29T22:54:22.466Z,26.13
2023-04-29T22:56:50.556Z,23.53
2023-04-29T22:59:18.553Z,24.03
2023-04-29T23:01:46.705Z,35.60
2023-04-29T23:04:14.899Z,31.87
2023-04-29T23:06:42.928Z,57.60
2023-04-29T23:09:12.685Z,21.03
2023-04-29T23:11:40.696Z,22.47
2023-04-29T23:14:08.674Z,26.10
2023-04-29T23:16:36.737Z,28.03
2023-04-29T23:19:04.816Z,25.33
2023-04-29T23:21:34.302Z,32.07
2023-04-29T23:24:03.542Z,34.17
2023-04-29T23:26:33.025Z,55.93
2023-04-29T23:29:01.091Z,28.07
2023-04-29T23:31:29.137Z,39.73
2023-04-29T23:33:57.207Z,44.13
2023-04-29T23:36:25.225Z,31.07
2023-04-29T23:38:53.329Z,33.27
2023-04-29T23:41:21.392Z,32.97
2023-04-29T23:43:50.751Z,26.03
2023-04-29T23:46:18.795Z,27.30
2023-04-29T23:48:46.788Z,28.87
2023-04-29T23:51:14.789Z,32.63
2023-04-29T23:53:42.785Z,13.00
2023-04-29T23:56:11.142Z,9.70
2023-04-29T23:58:39.137Z,12.27
